»·PEaware :: UAL210 KBUR-KLAS

UAL210 :: KBUR-KLAS

FLIGHT INFORMATION

Flight Status: Arrived
Operator:
United Airlines
More flights by this operator :: More flights under this callsign
Pilot: Anonymous 16446 (16446)
Aircraft: BOEING 727-100
(B721)
More flights by this aircraft type
Origin: KBUR Bob Hope-Burbank
United States
Destination: KLAS McCarran Intl
United States
More flights between these airports :: More routes between these airports
Route: +VNY3 DAG CLARR3
File this flight plan on PilotEdge
Remarks:
Altitude:
(Current/Filed)
280,000ft
Speed:
(Current/Filed)
500kts
Departed: 27-Nov-17 09:19 PM
Arrived: 27-Nov-17 10:02 PM
Distance/Time
Traveled:
534nm/0:43
Distance/Time
To Go:
Arrived

Flight Plot

Page will automatically refresh every two minutes.

Flight plan parsing failed; only flown route is shown


Map Options




Map Legend


Flown Route
Filed Route
Departure Airport
Arrival Airport
Navaid (VOR, NDB)
Fix

Horizontal Profiles

Position Reports

Time Latitude Longitude Heading Altitude Ground
Speed
27-Nov-17 20:52 34.196824 -118.352827 177 745ft 0kts
27-Nov-17 20:53 34.196824 -118.352827 177 745ft 0kts
27-Nov-17 20:54 34.196824 -118.352827 177 745ft 0kts
27-Nov-17 20:55 34.196824 -118.352827 177 745ft 0kts
27-Nov-17 20:56 34.196824 -118.352827 177 745ft 0kts
27-Nov-17 20:57 34.196824 -118.352827 177 745ft 0kts
27-Nov-17 20:58 34.196824 -118.352827 177 745ft 0kts
27-Nov-17 20:59 34.196824 -118.352827 177 745ft 0kts
27-Nov-17 21:00 34.196824 -118.352827 177 745ft 0kts
27-Nov-17 21:01 34.196824 -118.352827 177 745ft 0kts
27-Nov-17 21:02 34.196824 -118.352827 177 745ft 0kts
27-Nov-17 21:03 34.196824 -118.352827 177 745ft 0kts
27-Nov-17 21:04 34.196824 -118.352827 177 745ft 0kts
27-Nov-17 21:05 34.196824 -118.352827 177 745ft 0kts
27-Nov-17 21:06 34.197177 -118.352470 272 745ft 0kts
27-Nov-17 21:07 34.197177 -118.352470 272 745ft 0kts
27-Nov-17 21:08 34.197177 -118.352471 272 745ft 0kts
27-Nov-17 21:09 34.197177 -118.352471 272 745ft 0kts
27-Nov-17 21:10 34.197177 -118.352471 272 745ft 0kts
27-Nov-17 21:11 34.197485 -118.353631 295 745ft 17kts
27-Nov-17 21:12 34.200408 -118.355808 348 746ft 28kts
27-Nov-17 21:13 34.204665 -118.356956 347 745ft 16kts
27-Nov-17 21:14 34.209052 -118.358175 347 746ft 18kts
27-Nov-17 21:15 34.211635 -118.359023 315 745ft 0kts
27-Nov-17 21:18 34.211667 -118.359041 307 746ft 0kts
27-Nov-17 21:19 34.211667 -118.359041 307 746ft 0kts
27-Nov-17 21:20 34.211667 -118.359041 307 745ft 0kts
27-Nov-17 21:21 34.211667 -118.359041 307 746ft 0kts
27-Nov-17 21:22 34.211719 -118.359121 308 745ft 4kts
27-Nov-17 21:23 34.211992 -118.360364 172 745ft 0kts
27-Nov-17 21:24 34.183173 -118.357261 199 1702ft 156kts
27-Nov-17 21:25 34.147790 -118.401849 230 3781ft 239kts
27-Nov-17 21:26 34.101983 -118.475410 244 5247ft 271kts
27-Nov-17 21:27 34.131879 -118.528894 340 8161ft 266kts
27-Nov-17 21:28 34.196230 -118.502686 37 11333ft 316kts
27-Nov-17 21:29 34.265057 -118.426620 38 15072ft 357kts
27-Nov-17 21:30 34.344535 -118.345547 36 18823ft 390kts
27-Nov-17 21:31 34.429092 -118.256565 33 22005ft 409kts
27-Nov-17 21:32 34.519362 -118.168537 40 24324ft 437kts
27-Nov-17 21:33 34.615513 -118.078129 30 27269ft 436kts
27-Nov-17 21:34 34.681416 -117.960493 77 28676ft 485kts
27-Nov-17 21:35 34.669028 -117.784042 99 27105ft 545kts
27-Nov-17 21:36 34.672780 -117.603848 72 27285ft 540kts
27-Nov-17 21:37 34.712646 -117.430340 72 27211ft 530kts
27-Nov-17 21:38 34.750477 -117.261452 67 27095ft 521kts
27-Nov-17 21:39 34.801326 -117.100111 66 27285ft 507kts
27-Nov-17 21:40 34.854146 -116.936472 63 25622ft 535kts
27-Nov-17 21:41 34.904605 -116.768793 66 26543ft 506kts
27-Nov-17 21:42 34.952914 -116.610205 65 26585ft 503kts
27-Nov-17 21:43 35.015465 -116.462254 35 25997ft 481kts
27-Nov-17 21:44 35.124393 -116.375844 28 23861ft 468kts
27-Nov-17 21:45 35.221194 -116.280262 46 20578ft 494kts
27-Nov-17 21:46 35.295730 -116.145967 45 19460ft 444kts
27-Nov-17 21:47 35.376101 -116.042394 40 18123ft 393kts
27-Nov-17 21:48 35.441910 -115.953207 42 16671ft 323kts
27-Nov-17 21:49 35.500266 -115.878022 41 14387ft 291kts
27-Nov-17 21:50 35.548264 -115.801200 40 13456ft 275kts
27-Nov-17 21:51 35.600296 -115.731342 39 12840ft 285kts
27-Nov-17 21:52 35.652461 -115.655558 46 13078ft 299kts
27-Nov-17 21:53 35.710948 -115.572805 40 12098ft 335kts
27-Nov-17 21:54 35.781034 -115.508894 3 11808ft 304kts
27-Nov-17 21:55 35.861955 -115.506893 4 11711ft 289kts
27-Nov-17 21:56 35.940005 -115.479007 16 11093ft 296kts
27-Nov-17 21:57 36.016854 -115.464932 9 11022ft 271kts
27-Nov-17 21:58 36.032006 -115.372889 91 9776ft 333kts
27-Nov-17 21:59 36.019977 -115.267410 92 8604ft 285kts
27-Nov-17 22:00 36.012225 -115.173279 91 8055ft 265kts
27-Nov-17 22:01 36.005675 -115.085471 88 7516ft 240kts
27-Nov-17 22:02 36.003756 -115.017472 83 6712ft 171kts
27-Nov-17 22:03 36.029338 -114.989215 336 4436ft 158kts
27-Nov-17 22:04 36.057417 -115.022148 314 3349ft 138kts
27-Nov-17 22:05 36.073620 -115.063870 275 3111ft 150kts
27-Nov-17 22:06 36.073680 -115.112612 278 2419ft 133kts
27-Nov-17 22:07 36.073847 -115.143818 289 2126ft 25kts
27-Nov-17 22:08 36.075120 -115.146431 331 2125ft 5kts
27-Nov-17 22:09 36.078917 -115.146984 21 2125ft 0kts
27-Nov-17 22:10 36.079519 -115.146684 22 2125ft 0kts
27-Nov-17 22:11 36.073584 -115.095249 277 2745ft 140kts
27-Nov-17 22:12 36.073712 -115.138831 270 2126ft 75kts
27-Nov-17 22:13 36.073720 -115.138225 271 2126ft 82kts
27-Nov-17 22:20 42.368978 -122.873455 247 1328ft 0kts
27-Nov-17 22:21 42.368978 -122.873455 247 1328ft 0kts

Navigation Log

Ident Type
Flight plan parsing failed, navigation log unavailable